Time;durP1;ratioP1;P1;durP2;ratioP2;P2;SDS_P1;SDS_P2;PMS_P1;PMS_P2;Temp;Humidity;BMP_temperature;BMP_pressure;BME280_temperature;BME280_humidity;BME280_pressure;Samples;Min_cycle;Max_cycle;Signal;HPM_P1;HPM_P2
2022/06/30 00:01:14;;;;;;;6.88;3.17;;;13.50;99.90;;;;;;5043854;28;20080;-69
2022/06/30 00:03:41;;;;;;;6.18;3.15;;;13.50;99.90;;;;;;5050446;28;20437;-68
2022/06/30 00:06:08;;;;;;;8.85;3.25;;;13.60;99.90;;;;;;5048318;28;20155;-69
2022/06/30 00:08:35;;;;;;;7.00;3.13;;;13.60;99.90;;;;;;5038149;28;20034;-69
2022/06/30 00:11:06;;;;;;;4.70;2.92;;;13.70;99.90;;;;;;5052003;28;20025;-69
2022/06/30 00:13:39;;;;;;;9.25;3.35;;;13.70;99.90;;;;;;5057539;28;20021;-69
2022/06/30 00:16:07;;;;;;;9.73;3.33;;;13.60;99.90;;;;;;5053062;28;20040;-69
2022/06/30 00:18:35;;;;;;;10.70;2.88;;;13.70;99.90;;;;;;5048485;28;20053;-69
2022/06/30 00:21:03;;;;;;;4.70;2.60;;;13.80;99.90;;;;;;5044301;28;20022;-69
2022/06/30 00:23:31;;;;;;;9.90;2.55;;;13.80;99.90;;;;;;5053567;28;20495;-68
2022/06/30 00:25:58;;;;;;;8.80;2.50;;;13.90;99.90;;;;;;5051992;28;20035;-68
2022/06/30 00:28:25;;;;;;;6.43;1.98;;;14.10;99.90;;;;;;5044704;28;20029;-67
2022/06/30 00:30:53;;;;;;;6.38;2.50;;;14.20;99.90;;;;;;5040600;28;20030;-68
2022/06/30 00:33:21;;;;;;;5.22;1.88;;;14.40;99.90;;;;;;5046664;28;20072;-68
2022/06/30 00:35:49;;;;;;;8.68;1.67;;;14.50;99.90;;;;;;5050353;28;20418;-68
2022/06/30 00:38:16;;;;;;;6.10;2.20;;;14.50;99.90;;;;;;5052815;28;20111;-68
2022/06/30 00:40:46;;;;;;;6.13;1.60;;;14.80;99.90;;;;;;5037222;28;20025;-68
2022/06/30 00:43:14;;;;;;;5.60;2.00;;;14.80;99.90;;;;;;5043503;28;20020;-68
2022/06/30 00:45:45;;;;;;;5.15;1.88;;;14.90;99.90;;;;;;5046213;28;20025;-68
2022/06/30 00:48:13;;;;;;;5.43;1.10;;;15.10;99.90;;;;;;5038898;28;20033;-68
2022/06/30 00:50:44;;;;;;;2.05;0.90;;;15.20;99.90;;;;;;5034871;28;20053;-68
2022/06/30 00:53:12;;;;;;;11.13;1.63;;;15.20;99.90;;;;;;5042098;28;20103;-68
2022/06/30 00:55:40;;;;;;;3.10;1.20;;;15.10;99.90;;;;;;5041970;28;20195;-67
2022/06/30 00:58:09;;;;;;;7.13;1.30;;;15.00;99.90;;;;;;5033748;28;20118;-68
2022/06/30 01:00:41;;;;;;;2.92;1.13;;;14.90;99.90;;;;;;5034663;28;20371;-67
2022/06/30 01:03:10;;;;;;;2.75;1.20;;;14.90;99.90;;;;;;5048265;28;20394;-67
2022/06/30 01:05:37;;;;;;;2.53;0.88;;;15.00;99.90;;;;;;5036275;28;20025;-67
2022/06/30 01:08:05;;;;;;;5.15;1.25;;;15.20;99.90;;;;;;5040791;28;20029;-68
2022/06/30 01:13:19;;;;;;;2.50;0.95;;;15.20;99.90;;;;;;5044716;28;20060;-68
2022/06/30 01:15:46;;;;;;;4.15;1.17;;;15.10;99.90;;;;;;5033415;28;20033;-68
2022/06/30 01:18:14;;;;;;;3.35;0.90;;;15.10;99.90;;;;;;5038917;28;20389;-68
2022/06/30 01:20:41;;;;;;;5.35;2.00;;;15.20;99.90;;;;;;5046045;28;20100;-68
2022/06/30 01:23:08;;;;;;;3.63;1.08;;;15.40;99.90;;;;;;5033634;28;20034;-68
2022/06/30 01:25:36;;;;;;;5.28;1.00;;;15.60;99.90;;;;;;5032962;28;20029;-68
2022/06/30 01:28:04;;;;;;;5.10;1.05;;;15.90;99.90;;;;;;5048799;28;20386;-68
2022/06/30 01:30:31;;;;;;;3.67;1.50;;;15.90;99.90;;;;;;5041775;28;20025;-68
2022/06/30 01:32:58;;;;;;;3.97;1.10;;;15.80;99.90;;;;;;5042592;28;20045;-69
2022/06/30 01:35:26;;;;;;;5.93;1.13;;;15.60;99.90;;;;;;5065982;28;20119;-68
2022/06/30 01:37:57;;;;;;;2.17;0.77;;;15.60;99.90;;;;;;5048820;28;20040;-68
2022/06/30 01:40:27;;;;;;;4.70;0.95;;;15.80;99.90;;;;;;5052466;28;20069;-68
2022/06/30 01:42:55;;;;;;;3.55;1.10;;;15.80;99.90;;;;;;5038154;28;20025;-68
2022/06/30 01:45:23;;;;;;;1.95;0.60;;;15.70;99.90;;;;;;5050796;28;20032;-68
2022/06/30 01:47:51;;;;;;;6.75;3.92;;;15.70;99.90;;;;;;5049170;28;20029;-68
2022/06/30 01:50:21;;;;;;;3.67;1.20;;;15.70;99.90;;;;;;5051384;28;20513;-68
2022/06/30 01:52:49;;;;;;;3.30;1.13;;;15.80;99.90;;;;;;5037487;28;20025;-68
2022/06/30 01:55:16;;;;;;;1.95;0.70;;;15.70;99.90;;;;;;5040883;28;20124;-68
2022/06/30 01:57:48;;;;;;;4.28;1.38;;;15.60;99.90;;;;;;5039747;28;20045;-69
2022/06/30 02:00:18;;;;;;;2.38;0.60;;;15.70;99.90;;;;;;5039378;28;20029;-68
2022/06/30 02:02:46;;;;;;;3.72;0.95;;;15.70;99.90;;;;;;5033580;28;20048;-68
2022/06/30 02:05:13;;;;;;;2.00;0.55;;;15.60;99.90;;;;;;5037802;28;20033;-68
2022/06/30 02:07:41;;;;;;;3.58;1.05;;;15.60;99.90;;;;;;5041691;28;20035;-68
2022/06/30 02:10:12;;;;;;;2.88;0.80;;;15.60;99.90;;;;;;5031795;28;20028;-68
2022/06/30 02:12:45;;;;;;;5.13;0.98;;;15.70;99.90;;;;;;5035448;28;20551;-68
2022/06/30 02:15:24;;;;;;;2.75;0.70;;;15.60;99.90;;;;;;5054491;28;20811;-68
2022/06/30 02:17:53;;;;;;;3.55;1.23;;;15.60;99.90;;;;;;5046816;28;20045;-68
2022/06/30 02:20:23;;;;;;;2.30;0.98;;;15.70;99.90;;;;;;5039857;28;20029;-68
2022/06/30 02:22:54;;;;;;;4.90;2.42;;;15.80;99.90;;;;;;5046602;28;20047;-67
2022/06/30 02:25:22;;;;;;;6.05;2.30;;;15.80;99.90;;;;;;5053559;28;20018;-67
2022/06/30 02:27:50;;;;;;;3.63;1.85;;;15.80;99.90;;;;;;5033638;28;20450;-68
2022/06/30 02:30:18;;;;;;;1.75;1.10;;;15.90;99.90;;;;;;5042244;28;20091;-68
2022/06/30 02:32:45;;;;;;;2.30;0.73;;;16.20;99.90;;;;;;5042455;28;20061;-67
2022/06/30 02:35:13;;;;;;;6.88;0.80;;;16.40;99.90;;;;;;5043192;28;20381;-67
2022/06/30 02:37:41;;;;;;;1.92;0.70;;;16.30;99.90;;;;;;5041053;28;20040;-67
2022/06/30 02:40:09;;;;;;;2.08;0.80;;;16.10;99.90;;;;;;5062156;28;20516;-67
2022/06/30 02:42:37;;;;;;;1.98;0.63;;;16.10;99.90;;;;;;5040539;28;20078;-68
2022/06/30 02:45:05;;;;;;;1.60;0.68;;;16.10;99.90;;;;;;5048083;28;20044;-67
2022/06/30 02:47:38;;;;;;;2.83;1.00;;;16.10;99.90;;;;;;5039580;28;20371;-67
2022/06/30 02:50:07;;;;;;;3.22;1.33;;;16.40;99.90;;;;;;5052060;28;20024;-67
2022/06/30 02:52:36;;;;;;;3.60;1.05;;;16.30;99.90;;;;;;5041027;28;20086;-67
2022/06/30 02:55:05;;;;;;;3.95;0.80;;;16.30;99.90;;;;;;5042599;28;20107;-68
2022/06/30 02:57:34;;;;;;;2.50;0.50;;;16.40;99.90;;;;;;5047864;28;20490;-68
2022/06/30 03:00:01;;;;;;;1.80;0.80;;;16.30;99.90;;;;;;5055539;28;20018;-68
2022/06/30 03:02:28;;;;;;;3.63;1.00;;;16.20;99.90;;;;;;5038034;28;20112;-67
2022/06/30 03:04:55;;;;;;;5.75;1.48;;;16.30;99.90;;;;;;5045582;28;20033;-68
2022/06/30 03:07:23;;;;;;;8.98;3.15;;;16.30;99.90;;;;;;5052342;28;20044;-68
2022/06/30 03:09:50;;;;;;;5.55;3.45;;;16.40;99.90;;;;;;5042070;28;20381;-68
2022/06/30 03:12:17;;;;;;;5.68;2.20;;;16.30;99.90;;;;;;5047933;28;20540;-68
2022/06/30 03:14:45;;;;;;;5.40;1.80;;;16.20;99.90;;;;;;5053561;28;20033;-67
2022/06/30 03:17:12;;;;;;;2.47;0.77;;;16.30;99.90;;;;;;5045906;28;20108;-68
2022/06/30 03:19:39;;;;;;;2.45;0.85;;;16.30;99.90;;;;;;5048945;28;20021;-68
2022/06/30 03:22:06;;;;;;;3.92;1.05;;;16.40;99.90;;;;;;5042939;28;20029;-67
2022/06/30 03:24:34;;;;;;;3.05;0.75;;;16.30;99.90;;;;;;5035527;28;20429;-68
2022/06/30 03:27:01;;;;;;;2.85;0.60;;;16.20;99.90;;;;;;5044915;28;20029;-68
2022/06/30 03:29:28;;;;;;;2.05;0.50;;;16.20;99.90;;;;;;5056933;28;20021;-68
2022/06/30 03:31:55;;;;;;;2.33;0.60;;;16.20;99.90;;;;;;5053440;28;20059;-68
2022/06/30 03:34:23;;;;;;;2.88;0.60;;;16.20;99.90;;;;;;5062833;28;20052;-68
2022/06/30 03:36:50;;;;;;;2.05;0.60;;;16.20;99.90;;;;;;5047838;28;20087;-68
2022/06/30 03:39:17;;;;;;;4.90;0.80;;;16.30;99.90;;;;;;5052339;28;20078;-68
2022/06/30 03:41:45;;;;;;;4.05;1.10;;;16.30;99.90;;;;;;5057093;28;20381;-67
2022/06/30 03:44:12;;;;;;;3.35;1.15;;;16.40;99.90;;;;;;5048195;28;20470;-67
2022/06/30 03:46:39;;;;;;;5.22;0.60;;;16.30;99.90;;;;;;5045340;28;20266;-67
2022/06/30 03:49:06;;;;;;;3.22;1.00;;;16.30;99.90;;;;;;5037438;28;20117;-67
2022/06/30 03:51:34;;;;;;;4.22;0.47;;;16.30;99.90;;;;;;5035124;28;20025;-67
2022/06/30 03:54:01;;;;;;;4.00;0.73;;;16.30;99.90;;;;;;5043950;28;20074;-68
2022/06/30 03:56:28;;;;;;;2.97;0.50;;;16.30;99.90;;;;;;5043490;28;20052;-69
2022/06/30 03:58:56;;;;;;;3.80;1.00;;;16.30;99.90;;;;;;5047009;28;20464;-69
2022/06/30 04:01:23;;;;;;;2.08;0.40;;;16.30;99.90;;;;;;5046743;28;20426;-69
2022/06/30 04:03:50;;;;;;;1.77;0.73;;;16.30;99.90;;;;;;5053593;28;20021;-70
2022/06/30 04:06:18;;;;;;;5.53;1.13;;;16.30;99.90;;;;;;5040736;28;20045;-70
2022/06/30 04:08:45;;;;;;;2.05;0.77;;;16.30;99.90;;;;;;5032759;28;20033;-70
2022/06/30 04:11:13;;;;;;;1.45;0.40;;;16.30;99.90;;;;;;5032533;28;20025;-69
2022/06/30 04:13:40;;;;;;;2.60;0.38;;;16.30;99.90;;;;;;5037397;28;20049;-69
2022/06/30 04:16:07;;;;;;;4.07;0.55;;;16.30;99.90;;;;;;5033717;28;20018;-70
2022/06/30 04:18:35;;;;;;;10.27;0.73;;;16.40;99.90;;;;;;5033584;28;20040;-70
2022/06/30 04:21:02;;;;;;;4.53;1.30;;;16.40;99.90;;;;;;5033704;28;20047;-70
2022/06/30 04:23:29;;;;;;;5.05;0.60;;;16.30;99.90;;;;;;5033008;28;20144;-70
2022/06/30 04:25:56;;;;;;;5.65;0.90;;;16.30;99.90;;;;;;5033270;28;20036;-70
2022/06/30 04:28:24;;;;;;;3.75;0.50;;;16.30;99.90;;;;;;5033680;28;20063;-70
2022/06/30 04:33:37;;;;;;;5.63;1.17;;;16.20;99.90;;;;;;5054327;28;20055;-70
2022/06/30 04:36:05;;;;;;;5.30;0.70;;;16.10;99.90;;;;;;5065109;28;20033;-69
2022/06/30 04:38:32;;;;;;;4.07;0.60;;;16.00;99.90;;;;;;5034077;28;20029;-70
2022/06/30 04:43:45;;;;;;;3.30;0.40;;;16.00;99.90;;;;;;5034279;28;20040;-69
2022/06/30 04:46:12;;;;;;;3.55;0.70;;;15.90;99.90;;;;;;5032490;28;20021;-69
2022/06/30 04:48:39;;;;;;;5.28;0.68;;;15.90;99.90;;;;;;5035792;28;20033;-69
2022/06/30 04:51:08;;;;;;;1.10;0.32;;;15.90;99.90;;;;;;5052168;28;20032;-69
2022/06/30 04:53:35;;;;;;;4.13;0.88;;;15.90;99.90;;;;;;5054264;28;20167;-69
2022/06/30 04:56:02;;;;;;;3.80;0.55;;;15.80;99.90;;;;;;5050424;28;20514;-69
2022/06/30 04:58:30;;;;;;;2.90;0.38;;;15.80;99.90;;;;;;5033601;28;20496;-69
2022/06/30 05:00:57;;;;;;;1.65;0.50;;;15.80;99.90;;;;;;5033628;28;20036;-69
2022/06/30 05:03:24;;;;;;;5.90;0.98;;;15.80;99.90;;;;;;5048850;28;20513;-69
2022/06/30 05:05:53;;;;;;;3.50;0.77;;;15.80;99.90;;;;;;5034161;28;20029;-69
2022/06/30 05:08:21;;;;;;;4.47;0.47;;;15.80;99.90;;;;;;5035055;28;20053;-69
2022/06/30 05:10:48;;;;;;;5.40;0.60;;;15.80;99.90;;;;;;5033430;28;20108;-69
2022/06/30 05:13:16;;;;;;;5.88;0.65;;;15.70;99.90;;;;;;5032519;28;20446;-69
2022/06/30 05:15:46;;;;;;;3.28;0.60;;;15.70;99.90;;;;;;5033698;28;20061;-69
2022/06/30 05:18:14;;;;;;;2.42;0.68;;;15.80;99.90;;;;;;5053264;28;20420;-69
2022/06/30 05:20:42;;;;;;;4.22;0.95;;;15.80;99.90;;;;;;5046190;28;20029;-69
2022/06/30 05:23:10;;;;;;;2.35;0.68;;;15.80;99.90;;;;;;5033209;28;20022;-68
2022/06/30 05:28:23;;;;;;;2.05;0.40;;;15.70;99.90;;;;;;5032615;28;20087;-69
2022/06/30 05:30:50;;;;;;;3.10;0.50;;;15.70;99.90;;;;;;5033471;28;20029;-69
2022/06/30 05:33:19;;;;;;;3.25;0.68;;;15.60;99.90;;;;;;5039911;28;20044;-68
2022/06/30 05:35:52;;;;;;;4.00;0.50;;;15.60;99.90;;;;;;5053069;28;20088;-68
2022/06/30 05:38:20;;;;;;;2.65;0.57;;;15.60;99.90;;;;;;5047773;28;20393;-69
2022/06/30 05:40:47;;;;;;;1.92;0.40;;;15.60;99.90;;;;;;5046836;28;20111;-70
2022/06/30 05:43:16;;;;;;;2.10;0.70;;;15.60;99.90;;;;;;5047634;28;20024;-68
2022/06/30 05:45:50;;;;;;;4.90;0.98;;;15.50;99.90;;;;;;5053459;28;20390;-68
2022/06/30 05:48:18;;;;;;;3.25;0.60;;;15.50;99.90;;;;;;5047476;28;20036;-68
2022/06/30 05:50:47;;;;;;;2.15;0.40;;;15.50;99.90;;;;;;5041155;28;20064;-69
2022/06/30 05:53:15;;;;;;;1.05;0.30;;;15.50;99.90;;;;;;5049676;28;20028;-69
2022/06/30 05:55:42;;;;;;;2.50;0.70;;;15.50;99.90;;;;;;5034336;28;20103;-68
2022/06/30 05:58:14;;;;;;;3.80;0.60;;;15.40;99.90;;;;;;5032533;28;20125;-68
2022/06/30 06:00:41;;;;;;;1.92;0.50;;;15.40;99.90;;;;;;5038940;28;20056;-70
2022/06/30 06:03:09;;;;;;;6.60;0.50;;;15.40;99.90;;;;;;5062422;28;20025;-70
2022/06/30 06:05:36;;;;;;;6.20;0.50;;;15.30;99.90;;;;;;5050752;28;20115;-70
2022/06/30 06:08:11;;;;;;;1.38;0.32;;;15.30;99.90;;;;;;5055111;28;20017;-70
2022/06/30 06:10:39;;;;;;;2.65;0.43;;;15.30;99.90;;;;;;5034587;28;20108;-69
2022/06/30 06:13:09;;;;;;;1.60;0.50;;;15.30;99.90;;;;;;5033262;28;20462;-70
2022/06/30 06:15:36;;;;;;;2.28;0.75;;;15.30;99.90;;;;;;5044266;28;20032;-70
2022/06/30 06:18:03;;;;;;;4.63;0.93;;;15.30;99.90;;;;;;5031867;28;20071;-70
2022/06/30 06:20:31;;;;;;;2.60;0.40;;;15.20;99.90;;;;;;5042378;28;20029;-70
2022/06/30 06:22:58;;;;;;;1.83;0.45;;;15.20;99.90;;;;;;5052069;28;20025;-70
2022/06/30 06:25:25;;;;;;;5.63;0.77;;;15.10;99.90;;;;;;5058955;28;21022;-70
2022/06/30 06:30:38;;;;;;;3.65;0.50;;;15.10;99.90;;;;;;5048749;28;20060;-70
2022/06/30 06:33:06;;;;;;;3.47;0.40;;;15.10;99.90;;;;;;5052890;28;20082;-70
2022/06/30 06:35:33;;;;;;;3.13;0.40;;;15.00;99.90;;;;;;5050187;28;20456;-71
2022/06/30 06:38:01;;;;;;;1.65;0.45;;;15.00;99.90;;;;;;5053073;28;20389;-71
2022/06/30 06:40:29;;;;;;;6.40;0.75;;;14.90;99.90;;;;;;5054914;28;20078;-71
2022/06/30 06:42:56;;;;;;;4.97;0.70;;;14.90;99.90;;;;;;5048560;28;20027;-71
2022/06/30 06:45:24;;;;;;;3.78;1.02;;;14.70;99.90;;;;;;5061917;28;20031;-71
2022/06/30 06:47:51;;;;;;;4.47;0.90;;;14.70;99.90;;;;;;5039613;28;20108;-71
2022/06/30 06:50:19;;;;;;;4.47;0.60;;;14.70;99.90;;;;;;5062362;28;20025;-71
2022/06/30 06:52:46;;;;;;;1.73;0.57;;;14.70;99.90;;;;;;5046601;28;20026;-70
2022/06/30 06:55:14;;;;;;;5.68;2.15;;;14.70;99.90;;;;;;5052324;28;20037;-71
2022/06/30 06:57:43;;;;;;;2.75;0.68;;;14.60;99.90;;;;;;5042859;28;20032;-71
2022/06/30 07:00:16;;;;;;;3.05;0.50;;;14.60;99.90;;;;;;5054242;28;20359;-71
2022/06/30 07:02:44;;;;;;;3.45;0.60;;;14.60;99.90;;;;;;5044090;28;20034;-71
2022/06/30 07:05:11;;;;;;;3.42;0.50;;;14.50;99.90;;;;;;5054047;28;20041;-71
2022/06/30 07:07:39;;;;;;;1.27;0.35;;;14.50;99.90;;;;;;5038164;28;20033;-71
2022/06/30 07:10:08;;;;;;;3.67;0.55;;;14.50;99.90;;;;;;5050506;28;20432;-71
2022/06/30 07:12:36;;;;;;;1.98;0.55;;;14.50;99.90;;;;;;5036821;28;20079;-71
2022/06/30 07:15:04;;;;;;;4.10;1.90;;;14.50;99.90;;;;;;5035951;28;20101;-71
2022/06/30 07:17:40;;;;;;;3.38;1.85;;;14.50;99.90;;;;;;5041864;28;20087;-70
2022/06/30 07:20:08;;;;;;;4.72;0.65;;;14.50;99.90;;;;;;5051600;28;20036;-71
2022/06/30 07:22:36;;;;;;;2.67;1.20;;;14.50;99.90;;;;;;5054841;28;20112;-71
2022/06/30 07:25:03;;;;;;;1.83;0.70;;;14.40;99.90;;;;;;5053374;28;20029;-71
2022/06/30 07:27:31;;;;;;;3.90;0.70;;;14.40;99.90;;;;;;5046781;28;20065;-71
2022/06/30 07:29:58;;;;;;;1.00;0.60;;;14.40;99.90;;;;;;5053295;28;20024;-71
2022/06/30 07:32:26;;;;;;;3.22;1.02;;;14.30;99.90;;;;;;5054967;28;20048;-71
2022/06/30 07:34:54;;;;;;;3.70;1.63;;;14.30;99.90;;;;;;5052687;28;20028;-71
2022/06/30 07:37:21;;;;;;;2.40;0.93;;;14.20;99.90;;;;;;5052746;28;20040;-70
2022/06/30 07:39:48;;;;;;;2.97;1.42;;;14.20;99.90;;;;;;5047393;28;20021;-70
2022/06/30 07:42:15;;;;;;;5.13;2.83;;;14.20;99.90;;;;;;5034730;28;20026;-69
2022/06/30 07:44:43;;;;;;;7.43;3.47;;;14.10;99.90;;;;;;5048669;28;20024;-70
2022/06/30 07:47:11;;;;;;;6.90;3.38;;;14.10;99.90;;;;;;5061173;28;20025;-70
2022/06/30 07:49:40;;;;;;;6.75;2.58;;;14.00;99.90;;;;;;5051757;28;20037;-70
2022/06/30 07:52:07;;;;;;;8.35;4.03;;;14.00;99.90;;;;;;5047091;28;20116;-70
2022/06/30 07:54:35;;;;;;;6.00;2.85;;;13.90;99.90;;;;;;5065674;28;20041;-70
2022/06/30 07:57:02;;;;;;;6.28;3.03;;;13.90;99.90;;;;;;5051632;28;20025;-71
2022/06/30 07:59:30;;;;;;;2.75;1.10;;;13.90;99.90;;;;;;5053943;28;20032;-71
2022/06/30 08:01:57;;;;;;;2.35;0.70;;;13.90;99.90;;;;;;5037676;28;20030;-70
2022/06/30 08:04:24;;;;;;;4.22;1.05;;;14.00;99.90;;;;;;5059133;28;20025;-70
2022/06/30 08:06:52;;;;;;;4.40;1.02;;;14.00;99.90;;;;;;5044733;28;20029;-71
2022/06/30 08:09:19;;;;;;;3.88;1.23;;;14.00;99.90;;;;;;5043688;28;20035;-71
2022/06/30 08:11:46;;;;;;;4.13;1.45;;;14.00;99.90;;;;;;5038790;28;20031;-71
2022/06/30 08:14:14;;;;;;;1.85;0.93;;;14.00;99.90;;;;;;5046887;28;20112;-71
2022/06/30 08:16:41;;;;;;;3.65;1.17;;;14.00;99.90;;;;;;5035067;28;20034;-71
2022/06/30 08:19:10;;;;;;;4.55;1.30;;;14.00;99.90;;;;;;5039010;28;20020;-71
2022/06/30 08:21:37;;;;;;;3.88;0.90;;;14.00;99.90;;;;;;5046221;28;20051;-71
2022/06/30 08:24:05;;;;;;;2.47;1.52;;;14.00;99.90;;;;;;5052648;28;20018;-71
2022/06/30 08:26:32;;;;;;;2.67;1.00;;;14.00;99.90;;;;;;5071741;28;20111;-71
2022/06/30 08:28:59;;;;;;;2.08;1.25;;;14.00;99.90;;;;;;5066356;28;20027;-71
2022/06/30 08:31:28;;;;;;;1.30;0.75;;;14.00;99.90;;;;;;5041142;28;20500;-70
2022/06/30 08:33:56;;;;;;;5.28;1.05;;;14.00;99.90;;;;;;5057541;28;20029;-71
2022/06/30 08:36:23;;;;;;;2.60;0.95;;;14.00;99.90;;;;;;5051355;28;20083;-71
2022/06/30 08:38:51;;;;;;;2.28;1.00;;;14.00;99.90;;;;;;5054961;28;20473;-71
2022/06/30 08:44:03;;;;;;;2.97;0.98;;;14.10;99.90;;;;;;5058924;28;20039;-71
2022/06/30 08:46:33;;;;;;;4.18;1.42;;;14.10;99.90;;;;;;5048670;28;20025;-71
2022/06/30 08:49:00;;;;;;;5.20;1.85;;;14.00;99.90;;;;;;5035492;28;20021;-71
2022/06/30 08:51:29;;;;;;;4.03;2.15;;;14.00;99.90;;;;;;5037745;28;20033;-71
2022/06/30 08:54:01;;;;;;;4.32;3.10;;;14.00;99.90;;;;;;5047299;28;20031;-71
2022/06/30 08:56:34;;;;;;;3.90;2.75;;;14.00;99.90;;;;;;5041262;28;20573;-71
2022/06/30 08:59:04;;;;;;;6.85;1.70;;;14.00;99.90;;;;;;5032941;28;20076;-70
2022/06/30 09:01:32;;;;;;;2.25;1.65;;;14.00;99.90;;;;;;5059753;28;20029;-71
2022/06/30 09:04:00;;;;;;;5.80;2.92;;;14.00;99.90;;;;;;5047134;28;20041;-71
2022/06/30 09:06:27;;;;;;;3.63;2.10;;;14.00;99.90;;;;;;5051964;28;20025;-70
2022/06/30 09:08:54;;;;;;;6.55;2.00;;;14.00;99.90;;;;;;5033564;28;20410;-71
2022/06/30 09:11:54;;;;;;;3.28;1.85;;;14.00;99.90;;;;;;5054202;28;20111;-70
2022/06/30 09:14:41;;;;;;;6.20;2.00;;;14.00;99.90;;;;;;5052479;28;20025;-70
2022/06/30 09:17:15;;;;;;;5.53;2.30;;;14.00;99.90;;;;;;5043846;28;20079;-69
2022/06/30 09:20:00;;;;;;;6.57;2.45;;;13.90;99.90;;;;;;5042251;28;20065;-70
2022/06/30 09:22:34;;;;;;;3.75;1.98;;;13.90;99.90;;;;;;5035402;28;20044;-70
2022/06/30 09:25:12;;;;;;;3.30;1.98;;;13.90;99.90;;;;;;5035850;28;20417;-70
2022/06/30 09:27:44;;;;;;;3.90;2.05;;;13.90;99.90;;;;;;5050480;28;20048;-69
2022/06/30 09:30:14;;;;;;;6.18;2.78;;;13.90;99.90;;;;;;5051651;28;20490;-69
2022/06/30 09:33:05;;;;;;;4.47;2.30;;;13.90;99.90;;;;;;5037671;28;20048;-69
2022/06/30 09:35:32;;;;;;;6.18;2.33;;;13.80;99.90;;;;;;5046278;28;20017;-69
2022/06/30 09:38:04;;;;;;;4.57;2.40;;;13.80;99.90;;;;;;5040457;28;20021;-69
2022/06/30 09:40:34;;;;;;;5.32;3.00;;;13.80;99.90;;;;;;5057031;28;20111;-69
2022/06/30 09:43:04;;;;;;;7.15;3.28;;;13.70;99.90;;;;;;5037363;28;20044;-69
2022/06/30 09:45:43;;;;;;;6.57;2.70;;;13.70;99.90;;;;;;5051514;28;20029;-69
2022/06/30 09:48:12;;;;;;;6.85;3.13;;;13.70;99.90;;;;;;5041209;28;20025;-70
2022/06/30 09:50:40;;;;;;;5.88;3.53;;;13.60;99.90;;;;;;5051407;28;20024;-69
2022/06/30 09:53:16;;;;;;;7.38;3.75;;;13.50;99.90;;;;;;5046962;28;20057;-69
2022/06/30 09:55:50;;;;;;;9.63;4.35;;;13.40;99.90;;;;;;5032691;28;20509;-69
2022/06/30 09:58:36;;;;;;;12.85;4.05;;;13.40;99.90;;;;;;5039701;28;20079;-69
2022/06/30 10:01:05;;;;;;;7.88;4.82;;;13.20;99.90;;;;;;5045682;28;20064;-70
2022/06/30 10:03:32;;;;;;;7.28;4.18;;;13.20;99.90;;;;;;5032264;28;20029;-70
2022/06/30 10:06:13;;;;;;;8.02;4.38;;;13.20;99.90;;;;;;5047182;28;20038;-69
2022/06/30 10:08:41;;;;;;;6.88;3.90;;;13.20;99.90;;;;;;5048398;28;20049;-69
2022/06/30 10:11:10;;;;;;;6.10;3.75;;;13.10;99.90;;;;;;5036460;28;20074;-69
2022/06/30 10:13:46;;;;;;;5.65;3.55;;;13.10;99.90;;;;;;5062143;28;20062;-69
2022/06/30 10:16:18;;;;;;;12.18;3.92;;;13.00;99.90;;;;;;5057115;28;20034;-69
2022/06/30 10:18:46;;;;;;;5.50;3.28;;;13.10;99.90;;;;;;5037976;28;20095;-69
2022/06/30 10:21:14;;;;;;;6.57;3.08;;;13.10;99.90;;;;;;5033509;28;20025;-69
2022/06/30 10:23:44;;;;;;;6.43;3.00;;;13.20;99.90;;;;;;5053053;28;20063;-69
2022/06/30 10:27:11;;;;;;;7.00;2.72;;;13.20;99.90;;;;;;5051456;28;20029;-69
2022/06/30 10:28:59;;;;;;;9.85;2.75;;;13.20;99.90;;;;;;5052945;28;20087;-69
2022/06/30 10:31:42;;;;;;;10.40;3.10;;;13.30;99.90;;;;;;5055159;28;20656;-69
2022/06/30 10:34:22;;;;;;;5.57;3.20;;;13.30;99.90;;;;;;5042965;28;20070;-69
2022/06/30 10:37:06;;;;;;;7.82;3.53;;;13.30;99.90;;;;;;5047724;28;20033;-69
2022/06/30 10:39:51;;;;;;;6.00;2.53;;;13.30;99.90;;;;;;5040719;28;20048;-70
2022/06/30 10:42:59;;;;;;;7.60;2.70;;;13.30;99.90;;;;;;5036797;28;20048;-69
2022/06/30 10:45:34;;;;;;;5.32;2.22;;;13.30;99.90;;;;;;5036114;28;20052;-70
2022/06/30 10:48:06;;;;;;;6.00;2.20;;;13.30;99.90;;;;;;5042081;28;20124;-69
2022/06/30 10:50:39;;;;;;;7.05;2.25;;;13.40;99.90;;;;;;5042281;28;20469;-69
2022/06/30 10:53:09;;;;;;;4.57;2.33;;;13.40;99.90;;;;;;5063414;28;20063;-70
2022/06/30 10:55:51;;;;;;;7.22;2.65;;;13.40;99.90;;;;;;5056679;28;20076;-69
2022/06/30 10:58:22;;;;;;;7.50;2.92;;;13.50;99.90;;;;;;5049496;28;20389;-69
2022/06/30 11:00:58;;;;;;;6.28;2.30;;;13.40;99.90;;;;;;5034885;28;20081;-69
2022/06/30 11:03:34;;;;;;;5.35;2.63;;;13.40;99.90;;;;;;5049203;28;20800;-69
2022/06/30 11:06:09;;;;;;;6.82;2.50;;;13.40;99.90;;;;;;5043785;28;20037;-69
2022/06/30 11:08:39;;;;;;;5.25;2.15;;;13.30;99.90;;;;;;5042073;28;20040;-69
2022/06/30 11:11:25;;;;;;;5.68;2.65;;;13.20;99.90;;;;;;5038414;28;20035;-69
2022/06/30 11:14:13;;;;;;;4.45;2.72;;;13.20;99.90;;;;;;5049269;28;20025;-69
2022/06/30 11:16:40;;;;;;;8.02;3.17;;;13.20;99.90;;;;;;5047010;28;20028;-69
2022/06/30 11:19:23;;;;;;;7.57;3.55;;;13.30;99.90;;;;;;5052769;28;20036;-69
2022/06/30 11:21:51;;;;;;;6.55;3.50;;;13.30;99.90;;;;;;5047661;28;20024;-69
2022/06/30 11:24:23;;;;;;;4.75;3.17;;;13.20;99.90;;;;;;5049168;28;20061;-71
2022/06/30 11:29:41;;;;;;;7.20;4.45;;;13.20;99.90;;;;;;5037768;28;20040;-70
2022/06/30 11:32:09;;;;;;;6.45;4.28;;;13.20;99.90;;;;;;5044914;28;20025;-70
2022/06/30 11:34:38;;;;;;;9.65;4.35;;;13.20;99.90;;;;;;5039144;28;20026;-68
2022/06/30 11:37:06;;;;;;;7.70;3.45;;;13.10;99.90;;;;;;5042062;28;20107;-68
2022/06/30 11:39:58;;;;;;;6.50;3.70;;;13.10;99.90;;;;;;5049806;28;20033;-70
2022/06/30 11:42:26;;;;;;;6.38;3.10;;;13.00;99.90;;;;;;5043683;28;20029;-70
2022/06/30 11:44:54;;;;;;;8.63;3.90;;;13.10;99.90;;;;;;5049127;28;20025;-68
2022/06/30 11:47:22;;;;;;;6.40;2.67;;;13.10;99.90;;;;;;5037308;28;20055;-68
2022/06/30 11:49:55;;;;;;;4.45;2.80;;;13.10;99.90;;;;;;5048280;28;20477;-68
2022/06/30 11:52:38;;;;;;;7.93;2.05;;;13.10;99.90;;;;;;5042843;28;20154;-68
2022/06/30 11:55:12;;;;;;;5.85;2.67;;;13.00;99.90;;;;;;5049502;28;20497;-68
2022/06/30 11:57:44;;;;;;;;;;;13.00;99.90;;;;;;5042150;28;20094;-68
2022/06/30 12:00:31;;;;;;;3.05;1.98;;;13.10;99.90;;;;;;5047350;28;20050;-68
2022/06/30 12:02:58;;;;;;;7.18;2.97;;;13.00;99.90;;;;;;5048838;28;20414;-69
2022/06/30 12:05:31;;;;;;;4.22;2.35;;;13.00;99.90;;;;;;5043130;28;20025;-68
2022/06/30 12:07:58;;;;;;;5.45;1.95;;;13.00;99.90;;;;;;5047535;28;20029;-69
2022/06/30 12:10:26;;;;;;;5.20;2.30;;;12.90;99.90;;;;;;5046650;28;20029;-69
2022/06/30 12:12:55;;;;;;;3.63;2.40;;;12.90;99.90;;;;;;5045842;28;20139;-69
2022/06/30 12:15:23;;;;;;;7.28;2.13;;;12.90;99.90;;;;;;5046346;28;20030;-69
2022/06/30 12:17:56;;;;;;;3.13;2.13;;;12.90;99.90;;;;;;5042113;28;20037;-69
2022/06/30 12:20:29;;;;;;;6.30;2.53;;;12.90;99.90;;;;;;5046371;28;20033;-69
2022/06/30 12:22:57;;;;;;;6.95;1.83;;;12.90;99.90;;;;;;5064147;28;20021;-69
2022/06/30 12:25:26;;;;;;;5.70;2.53;;;12.90;99.90;;;;;;5049487;28;20030;-69
2022/06/30 12:27:58;;;;;;;7.70;2.72;;;12.90;99.90;;;;;;5037786;28;20057;-69
2022/06/30 12:30:36;;;;;;;6.03;2.40;;;12.80;99.90;;;;;;5041976;28;20033;-69
2022/06/30 12:33:07;;;;;;;4.60;2.38;;;12.80;99.90;;;;;;5041788;28;20017;-69
2022/06/30 12:35:36;;;;;;;5.00;2.70;;;12.80;99.90;;;;;;5045747;28;20061;-69
2022/06/30 12:38:15;;;;;;;4.25;2.00;;;12.70;99.90;;;;;;5041797;28;20105;-69
2022/06/30 12:40:43;;;;;;;4.88;2.35;;;12.60;99.90;;;;;;5038431;28;20030;-69
2022/06/30 12:43:10;;;;;;;8.40;2.65;;;12.60;99.90;;;;;;5038723;28;20112;-69
2022/06/30 12:45:45;;;;;;;4.00;2.20;;;12.60;99.90;;;;;;5044821;28;20027;-69
2022/06/30 12:48:15;;;;;;;4.93;2.00;;;12.60;99.90;;;;;;5047495;28;20416;-69
2022/06/30 12:50:45;;;;;;;5.25;2.65;;;12.50;99.90;;;;;;5049540;28;20071;-69
2022/06/30 12:53:26;;;;;;;10.98;2.50;;;12.50;99.90;;;;;;5052334;28;20514;-69
2022/06/30 12:56:11;;;;;;;7.30;2.78;;;12.50;99.90;;;;;;5037123;28;20068;-69
2022/06/30 12:59:01;;;;;;;4.05;1.77;;;12.50;99.90;;;;;;5047934;28;20102;-69
2022/06/30 13:01:42;;;;;;;3.75;1.77;;;12.40;99.90;;;;;;5045915;28;20389;-69
2022/06/30 13:04:17;;;;;;;8.70;1.70;;;12.40;99.90;;;;;;5055382;28;20094;-69
2022/06/30 13:06:49;;;;;;;4.68;1.42;;;12.40;99.90;;;;;;5042951;28;20024;-70
2022/06/30 13:09:19;;;;;;;4.22;2.33;;;12.40;99.90;;;;;;5061409;28;20023;-69
2022/06/30 13:11:52;;;;;;;7.35;1.83;;;12.30;99.90;;;;;;5050496;28;20028;-69
2022/06/30 13:14:21;;;;;;;3.58;1.55;;;12.40;99.90;;;;;;5052768;28;20029;-69
2022/06/30 13:16:49;;;;;;;5.47;2.10;;;12.40;99.90;;;;;;5053792;28;20032;-69
2022/06/30 13:19:18;;;;;;;5.50;2.03;;;12.40;99.90;;;;;;5050991;28;20063;-69
2022/06/30 13:21:49;;;;;;;6.55;2.22;;;12.40;99.90;;;;;;5046856;28;20033;-69